sensor_id;sensor_type;location;lat;lon;timestamp;pressure;altitude;pressure_sealevel;temperature;humidity
35758;BME280;21879;50.110;18.900;2022-09-17T00:02:09;97667.33;;;12.32;65.73
35758;BME280;21879;50.110;18.900;2022-09-17T00:12:38;97660.41;;;12.30;65.93
35758;BME280;21879;50.110;18.900;2022-09-17T00:23:07;97663.36;;;12.03;65.09
35758;BME280;21879;50.110;18.900;2022-09-17T00:33:35;97669.52;;;11.67;65.47
35758;BME280;21879;50.110;18.900;2022-09-17T00:44:39;97668.48;;;11.61;65.86
35758;BME280;21879;50.110;18.900;2022-09-17T00:55:14;97673.05;;;11.60;65.59
35758;BME280;21879;50.110;18.900;2022-09-17T01:05:46;97676.45;;;11.63;65.37
35758;BME280;21879;50.110;18.900;2022-09-17T01:16:19;97670.12;;;11.53;65.15
35758;BME280;21879;50.110;18.900;2022-09-17T01:27:19;97652.77;;;11.39;64.87
35758;BME280;21879;50.110;18.900;2022-09-17T01:37:58;97658.08;;;11.18;65.41
35758;BME280;21879;50.110;18.900;2022-09-17T01:48:31;97660.73;;;11.22;65.88
35758;BME280;21879;50.110;18.900;2022-09-17T01:59:04;97661.23;;;11.24;64.58
35758;BME280;21879;50.110;18.900;2022-09-17T02:09:37;97652.67;;;11.07;64.70
35758;BME280;21879;50.110;18.900;2022-09-17T02:20:08;97662.31;;;11.10;64.70
35758;BME280;21879;50.110;18.900;2022-09-17T02:30:36;97677.55;;;11.00;64.42
35758;BME280;21879;50.110;18.900;2022-09-17T02:41:13;97690.08;;;10.67;63.58
35758;BME280;21879;50.110;18.900;2022-09-17T02:51:47;97683.98;;;10.55;64.18
35758;BME280;21879;50.110;18.900;2022-09-17T03:02:23;97676.10;;;10.63;64.31
35758;BME280;21879;50.110;18.900;2022-09-17T03:12:54;97666.14;;;10.52;64.71
35758;BME280;21879;50.110;18.900;2022-09-17T03:23:22;97661.98;;;10.45;64.58
35758;BME280;21879;50.110;18.900;2022-09-17T03:33:49;97649.83;;;10.37;64.19
35758;BME280;21879;50.110;18.900;2022-09-17T03:44:17;97641.42;;;10.33;63.88
35758;BME280;21879;50.110;18.900;2022-09-17T03:54:46;97624.04;;;10.40;64.08
35758;BME280;21879;50.110;18.900;2022-09-17T04:05:14;97629.79;;;10.39;63.94
35758;BME280;21879;50.110;18.900;2022-09-17T04:15:43;97629.71;;;10.42;63.84
35758;BME280;21879;50.110;18.900;2022-09-17T04:26:11;97629.55;;;10.21;63.68
35758;BME280;21879;50.110;18.900;2022-09-17T04:36:40;97611.89;;;10.11;63.93
35758;BME280;21879;50.110;18.900;2022-09-17T04:47:08;97611.05;;;10.10;63.76
35758;BME280;21879;50.110;18.900;2022-09-17T04:57:36;97616.58;;;10.11;63.87
35758;BME280;21879;50.110;18.900;2022-09-17T05:08:04;97624.66;;;9.93;63.60
35758;BME280;21879;50.110;18.900;2022-09-17T05:18:33;97644.70;;;9.67;64.82
35758;BME280;21879;50.110;18.900;2022-09-17T05:29:00;97637.11;;;9.95;65.46
35758;BME280;21879;50.110;18.900;2022-09-17T05:39:28;97632.60;;;10.24;65.90
35758;BME280;21879;50.110;18.900;2022-09-17T05:49:56;97638.69;;;10.52;66.30
35758;BME280;21879;50.110;18.900;2022-09-17T06:00:24;97634.02;;;10.83;66.90
35758;BME280;21879;50.110;18.900;2022-09-17T06:10:52;97629.52;;;11.19;67.78
35758;BME280;21879;50.110;18.900;2022-09-17T06:21:27;97607.13;;;11.58;68.42
35758;BME280;21879;50.110;18.900;2022-09-17T06:31:53;97620.35;;;11.81;68.60
35758;BME280;21879;50.110;18.900;2022-09-17T06:42:22;97623.73;;;12.01;69.09
35758;BME280;21879;50.110;18.900;2022-09-17T06:52:51;97630.17;;;11.90;69.36
35758;BME280;21879;50.110;18.900;2022-09-17T07:03:19;97633.98;;;11.78;70.10
35758;BME280;21879;50.110;18.900;2022-09-17T07:13:48;97633.67;;;11.90;70.38
35758;BME280;21879;50.110;18.900;2022-09-17T07:24:16;97651.02;;;12.08;70.84
35758;BME280;21879;50.110;18.900;2022-09-17T07:34:44;97664.40;;;12.36;70.72
35758;BME280;21879;50.110;18.900;2022-09-17T07:45:12;97677.48;;;12.41;70.48
35758;BME280;21879;50.110;18.900;2022-09-17T07:55:41;97674.17;;;12.56;70.18
35758;BME280;21879;50.110;18.900;2022-09-17T08:06:11;97661.91;;;12.79;69.67
35758;BME280;21879;50.110;18.900;2022-09-17T08:16:41;97661.32;;;12.90;69.13
35758;BME280;21879;50.110;18.900;2022-09-17T08:27:12;97653.64;;;13.05;69.15
35758;BME280;21879;50.110;18.900;2022-09-17T08:37:39;97662.46;;;13.27;69.11
35758;BME280;21879;50.110;18.900;2022-09-17T08:48:11;97664.05;;;13.59;68.62
35758;BME280;21879;50.110;18.900;2022-09-17T08:58:56;97623.09;;;13.75;66.91
35758;BME280;21879;50.110;18.900;2022-09-17T09:09:33;97622.30;;;13.81;66.17
35758;BME280;21879;50.110;18.900;2022-09-17T09:20:02;97647.16;;;13.85;65.42
35758;BME280;21879;50.110;18.900;2022-09-17T09:30:42;97662.40;;;13.75;64.87
35758;BME280;21879;50.110;18.900;2022-09-17T09:41:15;97664.73;;;13.64;64.49
35758;BME280;21879;50.110;18.900;2022-09-17T09:51:52;97673.70;;;13.67;64.51
35758;BME280;21879;50.110;18.900;2022-09-17T10:02:22;97676.17;;;13.62;64.22
35758;BME280;21879;50.110;18.900;2022-09-17T10:13:05;97669.05;;;13.66;64.27
35758;BME280;21879;50.110;18.900;2022-09-17T10:23:36;97678.30;;;13.79;64.04
35758;BME280;21879;50.110;18.900;2022-09-17T10:34:11;97692.55;;;13.77;63.92
35758;BME280;21879;50.110;18.900;2022-09-17T10:44:53;97676.20;;;13.71;63.90
35758;BME280;21879;50.110;18.900;2022-09-17T10:55:26;97698.27;;;13.64;64.08
35758;BME280;21879;50.110;18.900;2022-09-17T11:06:18;97688.00;;;13.63;63.86
35758;BME280;21879;50.110;18.900;2022-09-17T11:16:55;97683.70;;;13.75;63.80
35758;BME280;21879;50.110;18.900;2022-09-17T11:28:02;97699.60;;;13.80;63.21
35758;BME280;21879;50.110;18.900;2022-09-17T11:38:39;97694.34;;;13.71;62.86
35758;BME280;21879;50.110;18.900;2022-09-17T11:49:14;97691.92;;;13.66;63.37
35758;BME280;21879;50.110;18.900;2022-09-17T11:59:51;97688.20;;;13.72;64.48
35758;BME280;21879;50.110;18.900;2022-09-17T12:10:33;97677.54;;;13.72;65.58
35758;BME280;21879;50.110;18.900;2022-09-17T12:21:05;97667.08;;;13.85;66.38
35758;BME280;21879;50.110;18.900;2022-09-17T12:31:42;97647.73;;;13.92;66.55
35758;BME280;21879;50.110;18.900;2022-09-17T12:42:21;97634.88;;;13.82;65.77
35758;BME280;21879;50.110;18.900;2022-09-17T12:53:05;97620.43;;;13.67;65.56
35758;BME280;21879;50.110;18.900;2022-09-17T13:03:38;97622.31;;;13.68;65.75
35758;BME280;21879;50.110;18.900;2022-09-17T13:14:15;97608.86;;;13.77;66.11
35758;BME280;21879;50.110;18.900;2022-09-17T13:25:02;97596.58;;;13.82;65.68
35758;BME280;21879;50.110;18.900;2022-09-17T13:35:50;97613.66;;;13.84;65.28
35758;BME280;21879;50.110;18.900;2022-09-17T13:46:22;97631.75;;;13.77;65.08
35758;BME280;21879;50.110;18.900;2022-09-17T13:57:03;97616.88;;;13.64;65.06
35758;BME280;21879;50.110;18.900;2022-09-17T14:07:35;97568.27;;;13.66;65.59
35758;BME280;21879;50.110;18.900;2022-09-17T14:18:38;97541.70;;;13.70;66.41
35758;BME280;21879;50.110;18.900;2022-09-17T14:29:16;97566.63;;;13.85;66.32
35758;BME280;21879;50.110;18.900;2022-09-17T14:39:49;97603.64;;;13.76;65.57
35758;BME280;21879;50.110;18.900;2022-09-17T14:50:23;97592.27;;;13.68;65.61
35758;BME280;21879;50.110;18.900;2022-09-17T15:00:53;97579.65;;;13.69;66.02
35758;BME280;21879;50.110;18.900;2022-09-17T15:11:21;97560.65;;;13.73;66.30
35758;BME280;21879;50.110;18.900;2022-09-17T15:21:50;97563.13;;;13.76;66.40
35758;BME280;21879;50.110;18.900;2022-09-17T15:32:20;97575.01;;;13.84;66.23
35758;BME280;21879;50.110;18.900;2022-09-17T15:42:52;97591.03;;;13.73;66.71
35758;BME280;21879;50.110;18.900;2022-09-17T15:53:24;97580.47;;;13.62;67.37
35758;BME280;21879;50.110;18.900;2022-09-17T16:04:18;97576.16;;;13.60;67.86
35758;BME280;21879;50.110;18.900;2022-09-17T16:14:51;97581.79;;;13.55;68.52
35758;BME280;21879;50.110;18.900;2022-09-17T16:25:21;97594.52;;;13.51;68.77
35758;BME280;21879;50.110;18.900;2022-09-17T16:35:50;97588.10;;;13.22;69.48
35758;BME280;21879;50.110;18.900;2022-09-17T16:46:17;97590.67;;;13.18;70.18
35758;BME280;21879;50.110;18.900;2022-09-17T16:56:45;97586.47;;;13.37;70.42
35758;BME280;21879;50.110;18.900;2022-09-17T17:07:13;97586.61;;;13.56;70.18
35758;BME280;21879;50.110;18.900;2022-09-17T17:17:42;97581.34;;;13.71;70.00
35758;BME280;21879;50.110;18.900;2022-09-17T17:28:10;97573.35;;;13.87;70.22
35758;BME280;21879;50.110;18.900;2022-09-17T17:38:40;97564.42;;;14.00;69.44
35758;BME280;21879;50.110;18.900;2022-09-17T17:49:08;97568.99;;;13.95;69.11
35758;BME280;21879;50.110;18.900;2022-09-17T17:59:36;97569.64;;;13.83;69.72
35758;BME280;21879;50.110;18.900;2022-09-17T18:10:06;97576.73;;;13.85;69.39
35758;BME280;21879;50.110;18.900;2022-09-17T18:20:34;97581.17;;;13.66;69.08
35758;BME280;21879;50.110;18.900;2022-09-17T18:31:04;97593.63;;;13.47;69.52
35758;BME280;21879;50.110;18.900;2022-09-17T18:41:34;97593.77;;;13.52;69.73
35758;BME280;21879;50.110;18.900;2022-09-17T18:52:03;97583.89;;;13.59;69.90
35758;BME280;21879;50.110;18.900;2022-09-17T19:02:32;97585.68;;;13.67;69.68
35758;BME280;21879;50.110;18.900;2022-09-17T19:13:01;97594.95;;;13.67;69.29
35758;BME280;21879;50.110;18.900;2022-09-17T19:23:29;97601.14;;;13.47;68.94
35758;BME280;21879;50.110;18.900;2022-09-17T19:33:58;97607.61;;;13.32;68.92
35758;BME280;21879;50.110;18.900;2022-09-17T19:44:27;97607.93;;;12.95;69.09
35758;BME280;21879;50.110;18.900;2022-09-17T19:54:56;97600.67;;;12.69;69.36
35758;BME280;21879;50.110;18.900;2022-09-17T20:05:24;97600.19;;;12.53;69.39
35758;BME280;21879;50.110;18.900;2022-09-17T20:15:53;97597.48;;;12.40;69.45
35758;BME280;21879;50.110;18.900;2022-09-17T20:26:21;97600.13;;;12.24;69.66
35758;BME280;21879;50.110;18.900;2022-09-17T20:36:48;97610.47;;;12.07;69.99
35758;BME280;21879;50.110;18.900;2022-09-17T20:47:36;97609.30;;;11.94;70.67
35758;BME280;21879;50.110;18.900;2022-09-17T20:58:05;97604.81;;;11.82;70.78
35758;BME280;21879;50.110;18.900;2022-09-17T21:08:35;97592.94;;;11.66;70.92
35758;BME280;21879;50.110;18.900;2022-09-17T21:19:06;97591.63;;;11.63;71.11
35758;BME280;21879;50.110;18.900;2022-09-17T21:29:35;97589.95;;;11.67;71.16
35758;BME280;21879;50.110;18.900;2022-09-17T21:40:03;97590.17;;;11.65;71.08
35758;BME280;21879;50.110;18.900;2022-09-17T21:50:33;97589.73;;;11.63;71.00
35758;BME280;21879;50.110;18.900;2022-09-17T22:01:06;97588.74;;;11.55;71.04
35758;BME280;21879;50.110;18.900;2022-09-17T22:11:36;97597.46;;;11.43;71.44
35758;BME280;21879;50.110;18.900;2022-09-17T22:22:04;97603.58;;;11.38;71.83
35758;BME280;21879;50.110;18.900;2022-09-17T22:32:32;97606.98;;;11.40;72.35
35758;BME280;21879;50.110;18.900;2022-09-17T22:43:00;97594.97;;;11.51;72.69
35758;BME280;21879;50.110;18.900;2022-09-17T22:53:27;97587.30;;;11.51;72.52
35758;BME280;21879;50.110;18.900;2022-09-17T23:03:56;97584.33;;;11.51;72.65
35758;BME280;21879;50.110;18.900;2022-09-17T23:14:24;97582.48;;;11.61;72.80
35758;BME280;21879;50.110;18.900;2022-09-17T23:24:52;97584.96;;;11.71;72.69
35758;BME280;21879;50.110;18.900;2022-09-17T23:35:20;97584.00;;;11.90;72.82
35758;BME280;21879;50.110;18.900;2022-09-17T23:45:48;97585.17;;;12.08;72.48
35758;BME280;21879;50.110;18.900;2022-09-17T23:56:25;97587.26;;;12.13;72.28
